sensor_id;sensor_type;location;lat;lon;timestamp;temperature;humidity
54485;DHT22;45006;56.958;24.166;2023-07-28T00:00:50;24.70;77.20
54485;DHT22;45006;56.958;24.166;2023-07-28T00:03:17;24.70;77.20
54485;DHT22;45006;56.958;24.166;2023-07-28T00:05:45;24.70;77.20
54485;DHT22;45006;56.958;24.166;2023-07-28T00:08:12;24.70;77.20
54485;DHT22;45006;56.958;24.166;2023-07-28T00:10:42;24.70;77.30
54485;DHT22;45006;56.958;24.166;2023-07-28T00:13:09;24.70;77.30
54485;DHT22;45006;56.958;24.166;2023-07-28T00:15:36;24.70;77.40
54485;DHT22;45006;56.958;24.166;2023-07-28T00:18:03;24.70;77.50
54485;DHT22;45006;56.958;24.166;2023-07-28T00:20:30;24.70;78.30
54485;DHT22;45006;56.958;24.166;2023-07-28T00:22:57;24.70;77.70
54485;DHT22;45006;56.958;24.166;2023-07-28T00:25:25;24.70;77.80
54485;DHT22;45006;56.958;24.166;2023-07-28T00:27:52;24.70;78.10
54485;DHT22;45006;56.958;24.166;2023-07-28T00:30:19;24.70;78.00
54485;DHT22;45006;56.958;24.166;2023-07-28T00:32:46;24.70;78.10
54485;DHT22;45006;56.958;24.166;2023-07-28T00:35:13;24.70;78.00
54485;DHT22;45006;56.958;24.166;2023-07-28T00:37:40;24.70;77.90
54485;DHT22;45006;56.958;24.166;2023-07-28T00:40:07;24.70;77.90
54485;DHT22;45006;56.958;24.166;2023-07-28T00:42:35;24.70;77.90
54485;DHT22;45006;56.958;24.166;2023-07-28T00:45:03;24.70;77.90
54485;DHT22;45006;56.958;24.166;2023-07-28T00:47:30;24.70;77.80
54485;DHT22;45006;56.958;24.166;2023-07-28T00:49:59;24.70;77.80
54485;DHT22;45006;56.958;24.166;2023-07-28T00:52:26;24.70;77.90
54485;DHT22;45006;56.958;24.166;2023-07-28T00:54:53;24.70;77.70
54485;DHT22;45006;56.958;24.166;2023-07-28T00:57:20;24.70;77.80
54485;DHT22;45006;56.958;24.166;2023-07-28T00:59:47;24.70;77.70
54485;DHT22;45006;56.958;24.166;2023-07-28T01:02:18;24.70;77.70
54485;DHT22;45006;56.958;24.166;2023-07-28T01:04:45;24.70;77.60
54485;DHT22;45006;56.958;24.166;2023-07-28T01:10:11;24.70;77.40
54485;DHT22;45006;56.958;24.166;2023-07-28T01:12:40;24.80;77.40
54485;DHT22;45006;56.958;24.166;2023-07-28T01:15:07;24.70;77.60
54485;DHT22;45006;56.958;24.166;2023-07-28T01:17:34;24.70;77.60
54485;DHT22;45006;56.958;24.166;2023-07-28T01:20:02;24.70;77.50
54485;DHT22;45006;56.958;24.166;2023-07-28T01:28:38;24.70;77.30
54485;DHT22;45006;56.958;24.166;2023-07-28T01:31:07;24.70;77.50
54485;DHT22;45006;56.958;24.166;2023-07-28T01:33:35;24.70;77.50
54485;DHT22;45006;56.958;24.166;2023-07-28T01:36:02;24.70;77.40
54485;DHT22;45006;56.958;24.166;2023-07-28T01:38:29;24.70;77.40
54485;DHT22;45006;56.958;24.166;2023-07-28T01:40:57;24.70;77.60
54485;DHT22;45006;56.958;24.166;2023-07-28T01:43:24;24.70;77.50
54485;DHT22;45006;56.958;24.166;2023-07-28T01:45:51;24.70;77.60
54485;DHT22;45006;56.958;24.166;2023-07-28T01:48:18;24.70;77.70
54485;DHT22;45006;56.958;24.166;2023-07-28T01:50:44;24.70;77.60
54485;DHT22;45006;56.958;24.166;2023-07-28T01:53:11;24.70;77.60
54485;DHT22;45006;56.958;24.166;2023-07-28T01:55:38;24.70;77.50
54485;DHT22;45006;56.958;24.166;2023-07-28T01:58:05;24.70;77.50
54485;DHT22;45006;56.958;24.166;2023-07-28T02:00:32;24.70;77.50
54485;DHT22;45006;56.958;24.166;2023-07-28T02:02:59;24.70;77.50
54485;DHT22;45006;56.958;24.166;2023-07-28T02:05:29;24.70;77.50
54485;DHT22;45006;56.958;24.166;2023-07-28T02:07:57;24.70;77.60
54485;DHT22;45006;56.958;24.166;2023-07-28T02:10:25;24.60;77.70
54485;DHT22;45006;56.958;24.166;2023-07-28T02:12:52;24.70;77.80
54485;DHT22;45006;56.958;24.166;2023-07-28T02:15:19;24.60;77.70
54485;DHT22;45006;56.958;24.166;2023-07-28T02:17:47;24.60;77.70
54485;DHT22;45006;56.958;24.166;2023-07-28T02:20:14;24.60;77.70
54485;DHT22;45006;56.958;24.166;2023-07-28T02:22:43;24.70;77.70
54485;DHT22;45006;56.958;24.166;2023-07-28T02:25:10;24.70;77.70
54485;DHT22;45006;56.958;24.166;2023-07-28T02:27:38;24.70;77.50
54485;DHT22;45006;56.958;24.166;2023-07-28T02:30:06;24.70;77.50
54485;DHT22;45006;56.958;24.166;2023-07-28T02:32:33;24.70;77.50
54485;DHT22;45006;56.958;24.166;2023-07-28T02:35:00;24.70;77.60
54485;DHT22;45006;56.958;24.166;2023-07-28T02:37:27;24.70;77.60
54485;DHT22;45006;56.958;24.166;2023-07-28T02:39:54;24.70;77.70
54485;DHT22;45006;56.958;24.166;2023-07-28T02:42:21;24.70;77.70
54485;DHT22;45006;56.958;24.166;2023-07-28T02:44:48;24.70;77.70
54485;DHT22;45006;56.958;24.166;2023-07-28T02:47:15;24.70;77.70
54485;DHT22;45006;56.958;24.166;2023-07-28T02:49:42;24.70;77.60
54485;DHT22;45006;56.958;24.166;2023-07-28T02:52:09;24.70;77.50
54485;DHT22;45006;56.958;24.166;2023-07-28T02:54:36;24.70;77.50
54485;DHT22;45006;56.958;24.166;2023-07-28T02:57:04;24.70;77.50
54485;DHT22;45006;56.958;24.166;2023-07-28T02:59:31;24.70;77.50
54485;DHT22;45006;56.958;24.166;2023-07-28T03:01:58;24.70;77.50
54485;DHT22;45006;56.958;24.166;2023-07-28T03:04:25;24.70;77.40
54485;DHT22;45006;56.958;24.166;2023-07-28T03:06:52;24.70;77.40
54485;DHT22;45006;56.958;24.166;2023-07-28T03:09:19;24.70;77.40
54485;DHT22;45006;56.958;24.166;2023-07-28T03:11:46;24.70;77.50
54485;DHT22;45006;56.958;24.166;2023-07-28T03:14:13;24.70;77.50
54485;DHT22;45006;56.958;24.166;2023-07-28T03:16:42;24.70;77.60
54485;DHT22;45006;56.958;24.166;2023-07-28T03:19:09;24.70;77.50
54485;DHT22;45006;56.958;24.166;2023-07-28T03:21:36;24.70;77.50
54485;DHT22;45006;56.958;24.166;2023-07-28T03:24:05;24.70;77.50
54485;DHT22;45006;56.958;24.166;2023-07-28T03:26:33;24.70;77.40
54485;DHT22;45006;56.958;24.166;2023-07-28T03:29:00;24.70;77.50
54485;DHT22;45006;56.958;24.166;2023-07-28T03:31:27;24.70;77.40
54485;DHT22;45006;56.958;24.166;2023-07-28T03:33:55;24.70;77.40
54485;DHT22;45006;56.958;24.166;2023-07-28T03:36:22;24.70;77.50
54485;DHT22;45006;56.958;24.166;2023-07-28T03:38:49;24.70;77.50
54485;DHT22;45006;56.958;24.166;2023-07-28T03:41:16;24.70;77.50
54485;DHT22;45006;56.958;24.166;2023-07-28T03:43:43;24.70;77.50
54485;DHT22;45006;56.958;24.166;2023-07-28T03:46:10;24.70;77.30
54485;DHT22;45006;56.958;24.166;2023-07-28T03:48:37;24.70;77.30
54485;DHT22;45006;56.958;24.166;2023-07-28T03:51:04;24.70;77.30
54485;DHT22;45006;56.958;24.166;2023-07-28T03:53:31;24.70;77.30
54485;DHT22;45006;56.958;24.166;2023-07-28T03:56:02;24.70;77.20
54485;DHT22;45006;56.958;24.166;2023-07-28T03:58:29;24.70;77.20
54485;DHT22;45006;56.958;24.166;2023-07-28T04:00:56;24.70;77.10
54485;DHT22;45006;56.958;24.166;2023-07-28T04:03:23;24.70;77.10
54485;DHT22;45006;56.958;24.166;2023-07-28T04:05:50;24.70;77.10
54485;DHT22;45006;56.958;24.166;2023-07-28T04:08:17;24.70;77.20
54485;DHT22;45006;56.958;24.166;2023-07-28T04:10:44;24.70;77.20
54485;DHT22;45006;56.958;24.166;2023-07-28T04:13:11;24.70;77.10
54485;DHT22;45006;56.958;24.166;2023-07-28T04:15:38;24.70;77.10
54485;DHT22;45006;56.958;24.166;2023-07-28T04:18:05;24.80;77.10
54485;DHT22;45006;56.958;24.166;2023-07-28T04:20:38;24.70;77.10
54485;DHT22;45006;56.958;24.166;2023-07-28T04:23:10;24.70;77.00
54485;DHT22;45006;56.958;24.166;2023-07-28T04:25:37;24.70;77.10
54485;DHT22;45006;56.958;24.166;2023-07-28T04:28:04;24.70;77.00
54485;DHT22;45006;56.958;24.166;2023-07-28T04:30:31;24.80;77.00
54485;DHT22;45006;56.958;24.166;2023-07-28T04:32:58;24.80;77.10
54485;DHT22;45006;56.958;24.166;2023-07-28T04:35:25;24.80;76.80
54485;DHT22;45006;56.958;24.166;2023-07-28T04:37:52;24.70;77.60
54485;DHT22;45006;56.958;24.166;2023-07-28T04:40:19;24.80;77.00
54485;DHT22;45006;56.958;24.166;2023-07-28T04:42:46;24.80;76.80
54485;DHT22;45006;56.958;24.166;2023-07-28T04:45:13;24.80;76.80
54485;DHT22;45006;56.958;24.166;2023-07-28T04:47:40;24.80;76.50
54485;DHT22;45006;56.958;24.166;2023-07-28T04:50:07;24.80;76.60
54485;DHT22;45006;56.958;24.166;2023-07-28T04:52:34;24.80;76.90
54485;DHT22;45006;56.958;24.166;2023-07-28T04:55:01;24.80;76.70
54485;DHT22;45006;56.958;24.166;2023-07-28T04:57:29;24.80;76.60
54485;DHT22;45006;56.958;24.166;2023-07-28T04:59:55;24.90;76.60
54485;DHT22;45006;56.958;24.166;2023-07-28T05:02:22;24.90;77.20
54485;DHT22;45006;56.958;24.166;2023-07-28T05:04:49;24.90;76.70
54485;DHT22;45006;56.958;24.166;2023-07-28T05:07:16;24.90;76.40
54485;DHT22;45006;56.958;24.166;2023-07-28T05:09:43;24.90;77.00
54485;DHT22;45006;56.958;24.166;2023-07-28T05:12:11;24.90;76.90
54485;DHT22;45006;56.958;24.166;2023-07-28T05:14:38;24.90;77.00
54485;DHT22;45006;56.958;24.166;2023-07-28T05:17:05;25.00;77.10
54485;DHT22;45006;56.958;24.166;2023-07-28T05:19:32;25.10;76.70
54485;DHT22;45006;56.958;24.166;2023-07-28T05:21:59;25.20;76.70
54485;DHT22;45006;56.958;24.166;2023-07-28T05:24:26;25.30;76.70
54485;DHT22;45006;56.958;24.166;2023-07-28T05:26:53;25.40;76.60
54485;DHT22;45006;56.958;24.166;2023-07-28T05:29:20;25.50;76.50
54485;DHT22;45006;56.958;24.166;2023-07-28T05:31:47;25.50;76.10
54485;DHT22;45006;56.958;24.166;2023-07-28T05:34:14;25.70;75.90
54485;DHT22;45006;56.958;24.166;2023-07-28T05:36:41;25.80;75.60
54485;DHT22;45006;56.958;24.166;2023-07-28T05:39:08;25.90;75.30
54485;DHT22;45006;56.958;24.166;2023-07-28T05:41:36;26.00;75.00
54485;DHT22;45006;56.958;24.166;2023-07-28T05:44:04;26.10;75.10
54485;DHT22;45006;56.958;24.166;2023-07-28T05:46:31;26.10;74.70
54485;DHT22;45006;56.958;24.166;2023-07-28T05:48:58;26.20;74.50
54485;DHT22;45006;56.958;24.166;2023-07-28T05:51:25;26.30;74.20
54485;DHT22;45006;56.958;24.166;2023-07-28T05:53:52;26.40;74.40
54485;DHT22;45006;56.958;24.166;2023-07-28T05:56:19;26.50;74.20
54485;DHT22;45006;56.958;24.166;2023-07-28T05:58:48;26.50;74.10
54485;DHT22;45006;56.958;24.166;2023-07-28T06:01:16;26.50;74.10
54485;DHT22;45006;56.958;24.166;2023-07-28T06:03:43;26.60;73.60
54485;DHT22;45006;56.958;24.166;2023-07-28T06:06:12;26.60;73.50
54485;DHT22;45006;56.958;24.166;2023-07-28T06:08:39;26.70;73.30
54485;DHT22;45006;56.958;24.166;2023-07-28T06:11:06;26.70;73.30
54485;DHT22;45006;56.958;24.166;2023-07-28T06:13:33;26.70;73.10
54485;DHT22;45006;56.958;24.166;2023-07-28T06:16:01;26.80;73.20
54485;DHT22;45006;56.958;24.166;2023-07-28T06:18:28;26.80;73.30
54485;DHT22;45006;56.958;24.166;2023-07-28T06:20:55;26.80;73.40
54485;DHT22;45006;56.958;24.166;2023-07-28T06:23:23;26.80;73.30
54485;DHT22;45006;56.958;24.166;2023-07-28T06:25:51;26.80;73.50
54485;DHT22;45006;56.958;24.166;2023-07-28T06:28:18;26.80;73.70
54485;DHT22;45006;56.958;24.166;2023-07-28T06:30:45;26.80;74.10
54485;DHT22;45006;56.958;24.166;2023-07-28T06:33:12;26.80;73.70
54485;DHT22;45006;56.958;24.166;2023-07-28T06:35:42;26.90;73.60
54485;DHT22;45006;56.958;24.166;2023-07-28T06:38:10;26.90;73.40
54485;DHT22;45006;56.958;24.166;2023-07-28T06:40:36;26.90;73.90
54485;DHT22;45006;56.958;24.166;2023-07-28T06:43:03;26.90;73.90
54485;DHT22;45006;56.958;24.166;2023-07-28T06:45:30;26.90;73.70
54485;DHT22;45006;56.958;24.166;2023-07-28T06:47:58;26.90;73.60
54485;DHT22;45006;56.958;24.166;2023-07-28T06:50:25;26.80;73.80
54485;DHT22;45006;56.958;24.166;2023-07-28T06:52:52;26.80;73.90
54485;DHT22;45006;56.958;24.166;2023-07-28T06:55:19;26.80;73.90
54485;DHT22;45006;56.958;24.166;2023-07-28T06:57:48;26.80;74.20
54485;DHT22;45006;56.958;24.166;2023-07-28T07:00:16;26.80;74.30
54485;DHT22;45006;56.958;24.166;2023-07-28T07:02:44;26.70;74.40
54485;DHT22;45006;56.958;24.166;2023-07-28T07:05:12;26.80;74.40
54485;DHT22;45006;56.958;24.166;2023-07-28T07:07:40;26.70;74.60
54485;DHT22;45006;56.958;24.166;2023-07-28T07:10:07;26.70;74.70
54485;DHT22;45006;56.958;24.166;2023-07-28T07:12:35;26.70;75.00
54485;DHT22;45006;56.958;24.166;2023-07-28T07:15:03;26.70;75.00
54485;DHT22;45006;56.958;24.166;2023-07-28T07:17:30;26.70;75.20
54485;DHT22;45006;56.958;24.166;2023-07-28T07:19:58;26.60;75.30
54485;DHT22;45006;56.958;24.166;2023-07-28T07:22:25;26.60;75.50
54485;DHT22;45006;56.958;24.166;2023-07-28T07:24:52;26.60;75.40
54485;DHT22;45006;56.958;24.166;2023-07-28T07:27:19;26.60;75.50
54485;DHT22;45006;56.958;24.166;2023-07-28T07:29:47;26.50;75.50
54485;DHT22;45006;56.958;24.166;2023-07-28T07:32:14;26.50;75.60
54485;DHT22;45006;56.958;24.166;2023-07-28T07:34:42;26.50;75.60
54485;DHT22;45006;56.958;24.166;2023-07-28T07:37:09;26.50;75.60
54485;DHT22;45006;56.958;24.166;2023-07-28T07:39:37;26.50;75.70
54485;DHT22;45006;56.958;24.166;2023-07-28T07:42:04;26.50;75.80
54485;DHT22;45006;56.958;24.166;2023-07-28T07:44:32;26.50;75.80
54485;DHT22;45006;56.958;24.166;2023-07-28T07:47:11;26.50;75.80
54485;DHT22;45006;56.958;24.166;2023-07-28T07:49:39;26.50;75.80
54485;DHT22;45006;56.958;24.166;2023-07-28T07:52:06;26.50;75.90
54485;DHT22;45006;56.958;24.166;2023-07-28T07:54:33;26.50;75.90
54485;DHT22;45006;56.958;24.166;2023-07-28T07:57:01;26.40;75.90
54485;DHT22;45006;56.958;24.166;2023-07-28T07:59:28;26.50;76.00
54485;DHT22;45006;56.958;24.166;2023-07-28T08:01:58;26.40;75.90
54485;DHT22;45006;56.958;24.166;2023-07-28T08:04:27;26.30;70.20
54485;DHT22;45006;56.958;24.166;2023-07-28T08:06:59;26.10;69.80
54485;DHT22;45006;56.958;24.166;2023-07-28T08:09:27;26.10;71.00
54485;DHT22;45006;56.958;24.166;2023-07-28T08:11:54;26.00;71.00
54485;DHT22;45006;56.958;24.166;2023-07-28T08:14:21;26.00;71.50
54485;DHT22;45006;56.958;24.166;2023-07-28T08:16:48;26.00;71.70
54485;DHT22;45006;56.958;24.166;2023-07-28T08:19:15;25.90;72.00
54485;DHT22;45006;56.958;24.166;2023-07-28T08:21:43;25.90;72.20
54485;DHT22;45006;56.958;24.166;2023-07-28T08:24:10;25.90;72.30
54485;DHT22;45006;56.958;24.166;2023-07-28T08:26:38;25.80;72.30
54485;DHT22;45006;56.958;24.166;2023-07-28T08:29:05;25.80;72.40
54485;DHT22;45006;56.958;24.166;2023-07-28T08:31:32;25.80;72.60
54485;DHT22;45006;56.958;24.166;2023-07-28T08:34:00;25.80;73.10
54485;DHT22;45006;56.958;24.166;2023-07-28T08:36:27;25.80;72.50
54485;DHT22;45006;56.958;24.166;2023-07-28T08:38:54;25.80;72.70
54485;DHT22;45006;56.958;24.166;2023-07-28T08:41:22;25.80;72.70
54485;DHT22;45006;56.958;24.166;2023-07-28T08:43:49;25.80;72.70
54485;DHT22;45006;56.958;24.166;2023-07-28T08:46:18;25.70;72.60
54485;DHT22;45006;56.958;24.166;2023-07-28T08:48:45;25.70;72.80
54485;DHT22;45006;56.958;24.166;2023-07-28T08:51:13;25.70;72.90
54485;DHT22;45006;56.958;24.166;2023-07-28T08:53:40;25.70;72.70
54485;DHT22;45006;56.958;24.166;2023-07-28T08:56:08;25.70;72.70
54485;DHT22;45006;56.958;24.166;2023-07-28T08:58:35;25.70;73.00
54485;DHT22;45006;56.958;24.166;2023-07-28T09:01:03;25.70;73.20
54485;DHT22;45006;56.958;24.166;2023-07-28T09:03:32;25.70;73.50
54485;DHT22;45006;56.958;24.166;2023-07-28T09:06:02;25.70;73.80
54485;DHT22;45006;56.958;24.166;2023-07-28T09:08:32;25.70;73.70
54485;DHT22;45006;56.958;24.166;2023-07-28T09:11:02;25.70;73.60
54485;DHT22;45006;56.958;24.166;2023-07-28T09:13:36;25.70;73.50
54485;DHT22;45006;56.958;24.166;2023-07-28T09:16:04;25.60;73.50
54485;DHT22;45006;56.958;24.166;2023-07-28T09:18:31;25.70;73.80
54485;DHT22;45006;56.958;24.166;2023-07-28T09:20:58;25.70;73.80
54485;DHT22;45006;56.958;24.166;2023-07-28T09:23:29;25.70;74.00
54485;DHT22;45006;56.958;24.166;2023-07-28T09:26:00;25.60;73.70
54485;DHT22;45006;56.958;24.166;2023-07-28T09:28:40;25.60;74.00
54485;DHT22;45006;56.958;24.166;2023-07-28T09:31:08;25.60;74.00
54485;DHT22;45006;56.958;24.166;2023-07-28T09:33:37;25.60;74.00
54485;DHT22;45006;56.958;24.166;2023-07-28T09:36:10;25.60;74.00
54485;DHT22;45006;56.958;24.166;2023-07-28T09:38:39;25.60;73.90
54485;DHT22;45006;56.958;24.166;2023-07-28T09:41:09;25.60;73.90
54485;DHT22;45006;56.958;24.166;2023-07-28T09:43:38;25.60;74.00
54485;DHT22;45006;56.958;24.166;2023-07-28T09:46:07;25.50;74.00
54485;DHT22;45006;56.958;24.166;2023-07-28T09:48:37;25.60;73.90
54485;DHT22;45006;56.958;24.166;2023-07-28T09:51:18;25.50;72.00
54485;DHT22;45006;56.958;24.166;2023-07-28T09:53:55;25.60;73.00
54485;DHT22;45006;56.958;24.166;2023-07-28T09:56:27;25.60;73.10
54485;DHT22;45006;56.958;24.166;2023-07-28T09:58:56;25.60;73.70
54485;DHT22;45006;56.958;24.166;2023-07-28T10:01:24;25.60;73.20
54485;DHT22;45006;56.958;24.166;2023-07-28T10:03:52;25.60;73.00
54485;DHT22;45006;56.958;24.166;2023-07-28T10:06:20;25.60;72.90
54485;DHT22;45006;56.958;24.166;2023-07-28T10:08:51;25.60;73.00
54485;DHT22;45006;56.958;24.166;2023-07-28T10:11:19;25.60;73.00
54485;DHT22;45006;56.958;24.166;2023-07-28T10:13:47;25.60;73.00
54485;DHT22;45006;56.958;24.166;2023-07-28T10:16:15;25.60;73.20
54485;DHT22;45006;56.958;24.166;2023-07-28T10:18:55;25.60;73.30
54485;DHT22;45006;56.958;24.166;2023-07-28T10:21:27;25.60;73.20
54485;DHT22;45006;56.958;24.166;2023-07-28T10:23:56;25.60;73.20
54485;DHT22;45006;56.958;24.166;2023-07-28T10:26:41;25.60;73.30
54485;DHT22;45006;56.958;24.166;2023-07-28T10:29:13;25.60;73.30
54485;DHT22;45006;56.958;24.166;2023-07-28T10:31:52;25.60;73.40
54485;DHT22;45006;56.958;24.166;2023-07-28T10:34:21;25.60;73.40
54485;DHT22;45006;56.958;24.166;2023-07-28T10:36:59;25.60;73.40
54485;DHT22;45006;56.958;24.166;2023-07-28T10:39:27;25.60;73.50
54485;DHT22;45006;56.958;24.166;2023-07-28T10:44:31;25.60;73.50
54485;DHT22;45006;56.958;24.166;2023-07-28T10:46:58;25.60;73.50
54485;DHT22;45006;56.958;24.166;2023-07-28T10:49:25;25.60;73.60
54485;DHT22;45006;56.958;24.166;2023-07-28T10:51:53;25.60;73.60
54485;DHT22;45006;56.958;24.166;2023-07-28T10:54:21;25.60;73.70
54485;DHT22;45006;56.958;24.166;2023-07-28T10:56:48;25.60;73.60
54485;DHT22;45006;56.958;24.166;2023-07-28T10:59:15;25.60;73.80
54485;DHT22;45006;56.958;24.166;2023-07-28T11:01:42;25.60;73.90
54485;DHT22;45006;56.958;24.166;2023-07-28T11:04:18;25.60;73.80
54485;DHT22;45006;56.958;24.166;2023-07-28T11:06:51;25.60;74.00
54485;DHT22;45006;56.958;24.166;2023-07-28T11:09:21;25.50;73.80
54485;DHT22;45006;56.958;24.166;2023-07-28T11:11:49;25.50;73.80
54485;DHT22;45006;56.958;24.166;2023-07-28T11:14:17;25.60;73.90
54485;DHT22;45006;56.958;24.166;2023-07-28T11:16:46;25.50;73.90
54485;DHT22;45006;56.958;24.166;2023-07-28T11:19:15;25.50;73.90
54485;DHT22;45006;56.958;24.166;2023-07-28T11:21:45;25.50;74.00
54485;DHT22;45006;56.958;24.166;2023-07-28T11:24:19;25.50;74.00
54485;DHT22;45006;56.958;24.166;2023-07-28T11:26:47;25.50;74.00
54485;DHT22;45006;56.958;24.166;2023-07-28T11:29:14;25.50;74.00
54485;DHT22;45006;56.958;24.166;2023-07-28T11:31:42;25.50;74.00
54485;DHT22;45006;56.958;24.166;2023-07-28T11:34:18;25.50;74.00
54485;DHT22;45006;56.958;24.166;2023-07-28T11:36:46;25.50;73.90
54485;DHT22;45006;56.958;24.166;2023-07-28T11:39:13;25.50;74.00
54485;DHT22;45006;56.958;24.166;2023-07-28T11:41:42;25.50;74.00
54485;DHT22;45006;56.958;24.166;2023-07-28T11:44:11;25.50;74.00
54485;DHT22;45006;56.958;24.166;2023-07-28T11:46:40;25.50;74.00
54485;DHT22;45006;56.958;24.166;2023-07-28T11:51:44;25.50;74.10
54485;DHT22;45006;56.958;24.166;2023-07-28T11:54:13;25.50;74.10
54485;DHT22;45006;56.958;24.166;2023-07-28T11:56:44;25.50;74.10
54485;DHT22;45006;56.958;24.166;2023-07-28T11:59:14;25.50;73.90
54485;DHT22;45006;56.958;24.166;2023-07-28T12:02:01;25.50;73.30
54485;DHT22;45006;56.958;24.166;2023-07-28T12:04:35;25.50;73.00
54485;DHT22;45006;56.958;24.166;2023-07-28T12:07:14;25.50;73.00
54485;DHT22;45006;56.958;24.166;2023-07-28T12:12:13;25.50;73.00
54485;DHT22;45006;56.958;24.166;2023-07-28T12:14:44;25.50;73.10
54485;DHT22;45006;56.958;24.166;2023-07-28T12:17:33;25.50;73.10
54485;DHT22;45006;56.958;24.166;2023-07-28T12:20:07;25.50;73.10
54485;DHT22;45006;56.958;24.166;2023-07-28T12:22:39;25.50;73.10
54485;DHT22;45006;56.958;24.166;2023-07-28T12:25:06;25.50;73.20
54485;DHT22;45006;56.958;24.166;2023-07-28T12:27:34;25.50;73.30
54485;DHT22;45006;56.958;24.166;2023-07-28T12:30:03;25.50;73.40
54485;DHT22;45006;56.958;24.166;2023-07-28T12:32:31;25.50;73.30
54485;DHT22;45006;56.958;24.166;2023-07-28T12:35:01;25.40;73.10
54485;DHT22;45006;56.958;24.166;2023-07-28T12:37:31;25.40;73.20
54485;DHT22;45006;56.958;24.166;2023-07-28T12:40:01;25.40;73.20
54485;DHT22;45006;56.958;24.166;2023-07-28T12:42:31;25.40;73.20
54485;DHT22;45006;56.958;24.166;2023-07-28T12:45:01;25.40;73.50
54485;DHT22;45006;56.958;24.166;2023-07-28T12:47:31;25.30;73.30
54485;DHT22;45006;56.958;24.166;2023-07-28T12:50:03;25.40;73.40
54485;DHT22;45006;56.958;24.166;2023-07-28T12:52:44;25.30;73.40
54485;DHT22;45006;56.958;24.166;2023-07-28T12:55:15;25.40;73.50
54485;DHT22;45006;56.958;24.166;2023-07-28T12:57:42;25.30;73.60
54485;DHT22;45006;56.958;24.166;2023-07-28T13:00:10;25.30;73.50
54485;DHT22;45006;56.958;24.166;2023-07-28T13:02:44;25.30;73.50
54485;DHT22;45006;56.958;24.166;2023-07-28T13:05:13;25.30;73.70
54485;DHT22;45006;56.958;24.166;2023-07-28T13:07:40;25.30;73.60
54485;DHT22;45006;56.958;24.166;2023-07-28T13:10:11;25.30;73.70
54485;DHT22;45006;56.958;24.166;2023-07-28T13:12:58;25.30;73.90
54485;DHT22;45006;56.958;24.166;2023-07-28T13:15:25;25.20;73.60
54485;DHT22;45006;56.958;24.166;2023-07-28T13:17:52;25.20;73.80
54485;DHT22;45006;56.958;24.166;2023-07-28T13:20:19;25.20;73.80
54485;DHT22;45006;56.958;24.166;2023-07-28T13:22:47;25.20;73.90
54485;DHT22;45006;56.958;24.166;2023-07-28T13:25:14;25.20;73.90
54485;DHT22;45006;56.958;24.166;2023-07-28T13:27:41;25.30;74.60
54485;DHT22;45006;56.958;24.166;2023-07-28T13:30:08;25.20;74.00
54485;DHT22;45006;56.958;24.166;2023-07-28T13:32:35;25.20;74.00
54485;DHT22;45006;56.958;24.166;2023-07-28T13:35:03;25.20;74.10
54485;DHT22;45006;56.958;24.166;2023-07-28T13:37:30;25.20;74.10
54485;DHT22;45006;56.958;24.166;2023-07-28T13:39:57;25.20;74.10
54485;DHT22;45006;56.958;24.166;2023-07-28T13:42:24;25.20;74.00
54485;DHT22;45006;56.958;24.166;2023-07-28T13:44:51;25.20;74.20
54485;DHT22;45006;56.958;24.166;2023-07-28T13:47:21;25.20;74.10
54485;DHT22;45006;56.958;24.166;2023-07-28T13:49:48;25.20;74.30
54485;DHT22;45006;56.958;24.166;2023-07-28T13:52:17;25.20;74.20
54485;DHT22;45006;56.958;24.166;2023-07-28T13:54:48;25.20;74.10
54485;DHT22;45006;56.958;24.166;2023-07-28T13:57:18;25.20;74.40
54485;DHT22;45006;56.958;24.166;2023-07-28T13:59:46;25.20;74.30
54485;DHT22;45006;56.958;24.166;2023-07-28T14:02:12;25.20;74.50
54485;DHT22;45006;56.958;24.166;2023-07-28T14:04:39;25.20;74.20
54485;DHT22;45006;56.958;24.166;2023-07-28T14:07:06;25.20;74.10
54485;DHT22;45006;56.958;24.166;2023-07-28T14:09:34;25.20;73.90
54485;DHT22;45006;56.958;24.166;2023-07-28T14:12:01;25.20;73.90
54485;DHT22;45006;56.958;24.166;2023-07-28T14:14:28;25.20;74.70
54485;DHT22;45006;56.958;24.166;2023-07-28T14:16:55;25.20;74.30
54485;DHT22;45006;56.958;24.166;2023-07-28T14:19:23;25.20;74.10
54485;DHT22;45006;56.958;24.166;2023-07-28T14:21:50;25.10;74.00
54485;DHT22;45006;56.958;24.166;2023-07-28T14:24:17;25.20;73.80
54485;DHT22;45006;56.958;24.166;2023-07-28T14:26:43;25.20;73.90
54485;DHT22;45006;56.958;24.166;2023-07-28T14:29:10;25.20;73.90
54485;DHT22;45006;56.958;24.166;2023-07-28T14:31:37;25.20;73.80
54485;DHT22;45006;56.958;24.166;2023-07-28T14:34:05;25.20;74.00
54485;DHT22;45006;56.958;24.166;2023-07-28T14:36:32;25.20;73.80
54485;DHT22;45006;56.958;24.166;2023-07-28T14:39:02;25.20;73.90
54485;DHT22;45006;56.958;24.166;2023-07-28T14:41:30;25.20;74.10
54485;DHT22;45006;56.958;24.166;2023-07-28T14:43:59;25.30;74.10
54485;DHT22;45006;56.958;24.166;2023-07-28T14:46:26;25.30;74.20
54485;DHT22;45006;56.958;24.166;2023-07-28T14:48:53;25.30;74.40
54485;DHT22;45006;56.958;24.166;2023-07-28T14:51:21;25.30;74.50
54485;DHT22;45006;56.958;24.166;2023-07-28T14:53:48;25.20;74.60
54485;DHT22;45006;56.958;24.166;2023-07-28T14:56:16;25.20;74.40
54485;DHT22;45006;56.958;24.166;2023-07-28T14:58:43;25.20;74.70
54485;DHT22;45006;56.958;24.166;2023-07-28T15:01:11;25.10;74.70
54485;DHT22;45006;56.958;24.166;2023-07-28T15:03:38;25.20;74.90
54485;DHT22;45006;56.958;24.166;2023-07-28T15:06:07;25.10;74.80
54485;DHT22;45006;56.958;24.166;2023-07-28T15:08:34;25.10;74.80
54485;DHT22;45006;56.958;24.166;2023-07-28T15:11:02;25.10;74.80
54485;DHT22;45006;56.958;24.166;2023-07-28T15:13:29;25.10;75.00
54485;DHT22;45006;56.958;24.166;2023-07-28T15:15:56;25.10;74.90
54485;DHT22;45006;56.958;24.166;2023-07-28T15:18:24;25.10;75.00
54485;DHT22;45006;56.958;24.166;2023-07-28T15:20:51;25.10;75.00
54485;DHT22;45006;56.958;24.166;2023-07-28T15:23:19;25.10;75.00
54485;DHT22;45006;56.958;24.166;2023-07-28T15:25:47;25.10;75.10
54485;DHT22;45006;56.958;24.166;2023-07-28T15:28:15;25.00;75.00
54485;DHT22;45006;56.958;24.166;2023-07-28T15:30:42;25.00;75.10
54485;DHT22;45006;56.958;24.166;2023-07-28T15:33:12;25.00;75.20
54485;DHT22;45006;56.958;24.166;2023-07-28T15:35:40;25.00;75.00
54485;DHT22;45006;56.958;24.166;2023-07-28T15:38:07;25.00;75.40